Haines City, FL (33844)

11:43 AM EDT on September 28, 2016 (GMT -0400)
APRSWXNET | | Change Station

Elev 159 ft 28.10 °N, 81.60 °W | Updated 30 minutes ago

Partly Cloudy
Partly Cloudy
84 °F
Feels Like 91 °F
N
4
Wind Variable Wind from West
Gusts 9.0 mph

Today
High -- | Low -- °F
--% Chance of Precip.
Yesterday
High -- | Low -- °F
Precip. -- in
Pressure 30.04 in
Visibility 10.0 miles
Clouds Few 2700 ft
Heat Index 91 °F
Dew Point 74 °F
Humidity 73%
Rainfall in
Snow Depth Not available.
7:18 AM 7:15 PM
Waning Crescent, 5% visible
METAR KGIF 281453Z AUTO 22004KT 10SM FEW027 29/21 A3004 RMK AO2 SLP170 T02940211 53011
Pressure 30.04 in
Visibility 10.0 miles
Clouds Few 2700 ft
Heat Index 91 °F
Dew Point 74 °F
Humidity 73%
Rainfall in
Snow Depth Not available.
7:18 AM 7:15 PM
Waning Crescent, 5% visible
METAR KGIF 281453Z AUTO 22004KT 10SM FEW027 29/21 A3004 RMK AO2 SLP170 T02940211 53011

10-Day Weather Forecast

Almanac

Astronomy

Sep. 28, 2016 Rise Set
Actual Time
Civil Twilight
Nautical Twilight
Astronomical Twilight
Moon
Length of Visible Light
Length of Day
Tomorrow will be .
, % of the Moon is Illuminated

Today's Extremes

State Highs State Lows

Community

WunderPhotos

Upload Photos

1,942,268 photos uploaded!

WunderBlog® & News

Nearby

Air Quality

  Air Quality AQ Index Pollutant
Not available.

Snow Depth

Station Depth Elevation

Earthquake Activity

City Distance Mag. Time & Date
Minimum magnitude displayed is 2.5.

Coastal Water Temperatures

Place Temperature

Stations

Nearby Weather Stations

Station Location Temp. Windchill Dew Point Humidity Wind Precip. Elev Updated Type
                   

Watches & Warnings

There are currently no watches in effect.